createdAt,value
2017-11-19T00:00:56.053Z,85.82
2017-11-19T00:03:24.378Z,85.53
2017-11-19T00:05:52.307Z,85.50
2017-11-19T00:08:20.244Z,85.75
2017-11-19T00:10:48.159Z,85.65
2017-11-19T00:13:16.121Z,85.82
2017-11-19T00:15:44.071Z,85.74
2017-11-19T00:18:12.395Z,85.59
2017-11-19T00:20:40.403Z,85.82
2017-11-19T00:23:08.341Z,85.84
2017-11-19T00:25:36.298Z,85.55
2017-11-19T00:28:04.221Z,85.50
2017-11-19T00:30:32.547Z,85.58
2017-11-19T00:33:00.501Z,85.41
2017-11-19T00:35:28.490Z,85.36
2017-11-19T00:37:56.595Z,85.50
2017-11-19T00:40:24.546Z,85.50
2017-11-19T00:42:52.672Z,85.47
2017-11-19T00:45:20.707Z,85.46
2017-11-19T00:47:48.635Z,85.33
2017-11-19T00:50:16.741Z,85.22
2017-11-19T00:52:44.687Z,85.07
2017-11-19T00:55:12.699Z,84.96
2017-11-19T00:57:41.115Z,84.86
2017-11-19T01:00:09.051Z,84.72
2017-11-19T01:02:37.442Z,85.24
2017-11-19T01:05:25.031Z,85.32
2017-11-19T01:07:53.071Z,85.64
2017-11-19T01:10:21.104Z,85.62
2017-11-19T01:12:49.054Z,85.68
2017-11-19T01:15:16.981Z,85.61
2017-11-19T01:17:44.896Z,85.45
2017-11-19T01:20:13.350Z,85.87
2017-11-19T01:22:41.279Z,86.12
2017-11-19T01:25:09.204Z,86.59
2017-11-19T01:27:37.762Z,86.85
2017-11-19T01:30:05.684Z,86.95
2017-11-19T01:32:33.615Z,86.84
2017-11-19T01:35:01.594Z,87.34
2017-11-19T01:37:29.889Z,87.25
2017-11-19T01:39:57.797Z,87.31
2017-11-19T01:42:25.751Z,87.76
2017-11-19T01:44:53.713Z,87.66
2017-11-19T01:47:21.673Z,87.58
2017-11-19T01:49:49.582Z,87.37
2017-11-19T01:52:17.518Z,87.34
2017-11-19T01:54:45.564Z,87.16
2017-11-19T01:57:13.881Z,87.33
2017-11-19T01:59:41.824Z,87.20
2017-11-19T02:02:09.753Z,87.26
2017-11-19T02:04:37.679Z,87.21
2017-11-19T02:07:05.673Z,87.34
2017-11-19T02:09:34.461Z,87.31
2017-11-19T02:12:02.455Z,87.18
2017-11-19T02:14:30.371Z,87.06
2017-11-19T02:16:58.298Z,86.75
2017-11-19T02:19:26.264Z,86.53
2017-11-19T02:21:54.167Z,86.40
2017-11-19T02:24:22.204Z,86.78
2017-11-19T02:26:50.124Z,87.01
2017-11-19T02:29:18.047Z,87.27
2017-11-19T02:31:46.363Z,87.75
2017-11-19T02:34:14.318Z,87.94
2017-11-19T02:36:42.252Z,88.16
2017-11-19T02:39:10.151Z,88.38
2017-11-19T02:41:38.077Z,88.59
2017-11-19T02:44:06.000Z,88.81
2017-11-19T02:46:34.046Z,88.76
2017-11-19T02:49:01.971Z,88.22
2017-11-19T02:51:29.906Z,88.08
2017-11-19T02:53:57.864Z,88.38
2017-11-19T02:56:25.799Z,88.65
2017-11-19T02:58:53.750Z,88.72
2017-11-19T03:01:21.660Z,88.37
2017-11-19T03:03:49.565Z,88.28
2017-11-19T03:06:17.490Z,88.43
2017-11-19T03:08:45.406Z,88.12
2017-11-19T03:11:13.341Z,88.18
2017-11-19T03:13:41.319Z,88.38
2017-11-19T03:16:09.284Z,88.19
2017-11-19T03:18:37.257Z,88.24
2017-11-19T03:21:05.192Z,88.20
2017-11-19T03:23:33.591Z,87.85
2017-11-19T03:26:01.537Z,87.65
2017-11-19T03:28:29.869Z,87.47
2017-11-19T03:30:57.803Z,87.39
2017-11-19T03:33:25.743Z,87.12
2017-11-19T03:35:54.051Z,87.20
2017-11-19T03:38:21.997Z,87.36
2017-11-19T03:40:50.447Z,87.27
2017-11-19T03:43:18.422Z,86.62
2017-11-19T03:45:46.396Z,86.33
2017-11-19T03:48:14.301Z,86.46
2017-11-19T03:50:42.222Z,86.53
2017-11-19T03:53:10.139Z,86.65
2017-11-19T03:55:38.067Z,86.57
2017-11-19T03:58:06.008Z,86.53
2017-11-19T04:00:34.014Z,86.20
2017-11-19T04:03:01.970Z,86.05
2017-11-19T04:05:29.891Z,86.02
2017-11-19T04:07:57.866Z,85.79
2017-11-19T04:10:25.785Z,85.87
2017-11-19T04:12:53.708Z,85.86
2017-11-19T04:15:21.675Z,85.68
2017-11-19T04:17:49.590Z,85.40
2017-11-19T04:20:17.601Z,85.33
2017-11-19T04:22:45.554Z,85.25
2017-11-19T04:25:13.865Z,85.13
2017-11-19T04:27:41.778Z,85.36
2017-11-19T04:30:09.695Z,85.61
2017-11-19T04:32:37.715Z,85.50
2017-11-19T04:35:05.707Z,85.75
2017-11-19T04:37:34.009Z,85.93
2017-11-19T04:40:02.026Z,85.79
2017-11-19T04:42:29.974Z,85.67
2017-11-19T04:44:57.919Z,85.69
2017-11-19T04:47:25.953Z,85.56
2017-11-19T04:49:54.259Z,85.44
2017-11-19T04:52:22.231Z,85.29
2017-11-19T04:54:50.144Z,85.23
2017-11-19T04:57:18.065Z,85.34
2017-11-19T04:59:46.002Z,85.52
2017-11-19T05:02:14.324Z,85.48
2017-11-19T05:04:42.229Z,85.71
2017-11-19T05:07:10.356Z,85.54
2017-11-19T05:09:38.269Z,85.71
2017-11-19T05:12:06.234Z,85.76
2017-11-19T05:14:34.129Z,85.66
2017-11-19T05:17:02.445Z,85.72
2017-11-19T05:19:30.398Z,85.54
2017-11-19T05:21:58.445Z,85.51
2017-11-19T05:24:26.316Z,85.50
2017-11-19T05:26:54.365Z,85.31
2017-11-19T05:29:22.849Z,85.28
2017-11-19T05:31:50.786Z,85.05
2017-11-19T05:34:18.709Z,85.20
2017-11-19T05:36:47.052Z,85.41
2017-11-19T05:39:15.026Z,85.22
2017-11-19T05:41:42.921Z,85.38
2017-11-19T05:44:10.833Z,85.64
2017-11-19T05:46:38.833Z,85.52
2017-11-19T05:49:06.737Z,85.48
2017-11-19T05:51:34.656Z,85.35
2017-11-19T05:54:02.634Z,85.43
2017-11-19T05:56:30.574Z,84.56
2017-11-19T05:58:58.510Z,84.49
2017-11-19T06:01:26.546Z,84.27
2017-11-19T06:03:54.452Z,84.71
2017-11-19T06:06:22.418Z,87.03
2017-11-19T06:08:50.338Z,86.73
2017-11-19T06:11:18.317Z,87.01
2017-11-19T06:13:46.285Z,87.34
2017-11-19T06:16:14.194Z,87.09
2017-11-19T06:18:42.112Z,87.38
2017-11-19T06:21:10.080Z,86.79
2017-11-19T06:23:38.069Z,86.88
2017-11-19T06:26:05.978Z,86.45
2017-11-19T06:28:33.891Z,86.64
2017-11-19T06:31:01.839Z,86.07
2017-11-19T06:33:30.742Z,86.13
2017-11-19T06:35:58.834Z,86.07
2017-11-19T06:38:26.749Z,85.87
2017-11-19T06:40:54.691Z,85.59
2017-11-19T06:43:22.995Z,85.58
2017-11-19T06:45:50.902Z,85.23
2017-11-19T06:48:18.873Z,85.20
2017-11-19T06:50:46.775Z,85.52
2017-11-19T06:53:15.093Z,85.48
2017-11-19T06:55:42.994Z,84.91
2017-11-19T06:58:10.954Z,84.84
2017-11-19T07:00:38.921Z,84.82
2017-11-19T07:03:06.828Z,84.37
2017-11-19T07:05:35.166Z,84.59
2017-11-19T07:08:03.082Z,84.54
2017-11-19T07:10:30.994Z,84.32
2017-11-19T07:12:58.974Z,84.14
2017-11-19T07:15:26.901Z,84.33
2017-11-19T07:17:54.802Z,84.32
2017-11-19T07:20:22.732Z,84.23
2017-11-19T07:22:50.658Z,84.23
2017-11-19T07:25:18.612Z,84.03
2017-11-19T07:27:46.538Z,83.88
2017-11-19T07:30:14.511Z,83.94
2017-11-19T07:32:42.463Z,83.94
2017-11-19T07:35:10.490Z,83.51
2017-11-19T07:37:38.415Z,83.54
2017-11-19T07:40:06.353Z,83.42
2017-11-19T07:42:34.714Z,82.96
2017-11-19T07:45:02.626Z,82.44
2017-11-19T07:47:30.642Z,82.03
2017-11-19T07:49:58.557Z,82.37
2017-11-19T07:52:26.469Z,81.47
2017-11-19T07:54:54.557Z,81.10
2017-11-19T07:57:22.921Z,80.39
2017-11-19T07:59:50.907Z,80.66
2017-11-19T08:02:18.925Z,80.95
2017-11-19T08:04:46.852Z,80.71
2017-11-19T08:07:14.750Z,80.22
2017-11-19T08:09:42.790Z,80.10
2017-11-19T08:12:10.759Z,80.12
2017-11-19T08:14:44.151Z,79.20
2017-11-19T08:17:12.106Z,79.39
2017-11-19T08:19:40.010Z,79.27
2017-11-19T08:22:07.994Z,78.93
2017-11-19T08:24:35.923Z,78.86
2017-11-19T08:27:04.252Z,79.79
2017-11-19T08:29:32.357Z,79.63
2017-11-19T08:32:00.330Z,79.64
2017-11-19T08:34:28.770Z,79.67
2017-11-19T08:36:56.679Z,79.44
2017-11-19T08:39:24.869Z,79.64
2017-11-19T08:41:52.781Z,79.62
2017-11-19T08:44:20.685Z,79.17
2017-11-19T08:46:48.758Z,79.19
2017-11-19T08:49:16.842Z,78.83
2017-11-19T08:51:44.897Z,78.42
2017-11-19T08:54:12.809Z,78.46
2017-11-19T08:56:40.709Z,78.18
2017-11-19T08:59:08.622Z,78.79
2017-11-19T09:01:37.027Z,78.81
2017-11-19T09:04:05.157Z,78.89
2017-11-19T09:06:33.226Z,78.80
2017-11-19T09:09:01.133Z,78.56
2017-11-19T09:11:29.479Z,78.23
2017-11-19T09:13:57.430Z,78.78
2017-11-19T09:16:25.435Z,78.65
2017-11-19T09:18:53.813Z,78.48
2017-11-19T09:21:22.114Z,78.49
2017-11-19T09:23:50.038Z,78.50
2017-11-19T09:26:17.966Z,78.19
2017-11-19T09:28:45.976Z,78.41
2017-11-19T09:31:13.898Z,78.48
2017-11-19T09:33:41.807Z,78.85
2017-11-19T09:36:09.796Z,80.02
2017-11-19T09:38:37.709Z,80.21
2017-11-19T09:41:05.627Z,79.81
2017-11-19T09:43:33.790Z,79.65
2017-11-19T09:46:01.759Z,79.21
2017-11-19T09:48:29.693Z,79.33
2017-11-19T09:50:57.601Z,79.34
2017-11-19T09:53:25.501Z,78.97
2017-11-19T09:55:53.432Z,78.98
2017-11-19T09:58:21.336Z,78.66
2017-11-19T10:00:49.315Z,78.63
2017-11-19T10:03:17.220Z,78.75
2017-11-19T10:05:45.216Z,78.43
2017-11-19T10:08:13.189Z,78.36
2017-11-19T10:10:41.112Z,78.66
2017-11-19T10:13:09.009Z,78.60
2017-11-19T10:15:36.983Z,79.09
2017-11-19T10:18:04.897Z,80.34
2017-11-19T10:20:32.913Z,81.99
2017-11-19T10:23:00.889Z,83.03
2017-11-19T10:25:28.798Z,84.21
2017-11-19T10:27:56.722Z,85.77
2017-11-19T10:30:24.629Z,86.16
2017-11-19T10:32:52.726Z,84.87
2017-11-19T10:35:20.734Z,85.22
2017-11-19T10:37:48.639Z,84.52
2017-11-19T10:40:16.553Z,84.67
2017-11-19T10:42:44.463Z,84.27
2017-11-19T10:45:12.776Z,84.19
2017-11-19T10:47:40.811Z,83.64
2017-11-19T10:50:09.157Z,83.72
2017-11-19T10:52:37.064Z,82.59
2017-11-19T10:55:04.966Z,83.58
2017-11-19T10:57:32.894Z,82.59
2017-11-19T11:00:00.803Z,81.99
2017-11-19T11:02:29.330Z,81.88
2017-11-19T11:04:57.626Z,81.58
2017-11-19T11:07:25.556Z,80.17
2017-11-19T11:09:53.467Z,80.65
2017-11-19T11:12:21.370Z,80.94
2017-11-19T11:14:49.367Z,80.96
2017-11-19T11:17:17.303Z,80.79
2017-11-19T11:19:45.246Z,80.80
2017-11-19T11:22:13.162Z,81.05
2017-11-19T11:24:41.154Z,81.09
2017-11-19T11:27:09.485Z,80.82
2017-11-19T11:29:37.381Z,81.07
2017-11-19T11:32:05.313Z,79.88
2017-11-19T11:34:33.228Z,78.87
2017-11-19T11:37:01.166Z,77.97
2017-11-19T11:39:29.099Z,77.75
2017-11-19T11:41:57.001Z,77.63
2017-11-19T11:44:24.926Z,78.33
2017-11-19T11:46:52.866Z,77.82
2017-11-19T11:49:20.827Z,78.16
2017-11-19T11:51:48.746Z,78.31
2017-11-19T11:54:16.669Z,78.45
2017-11-19T11:56:44.576Z,78.51
2017-11-19T11:59:12.485Z,80.47
2017-11-19T12:01:40.386Z,80.58
2017-11-19T12:04:08.717Z,80.74
2017-11-19T12:06:36.629Z,82.64
2017-11-19T12:09:04.934Z,83.28
2017-11-19T12:11:32.842Z,84.13
2017-11-19T12:14:00.756Z,83.95
2017-11-19T12:16:29.101Z,84.13
2017-11-19T12:18:57.021Z,85.97
2017-11-19T12:21:24.951Z,86.06
2017-11-19T12:23:52.857Z,86.70
2017-11-19T12:26:20.784Z,87.57
2017-11-19T12:28:48.734Z,88.81
2017-11-19T12:31:16.660Z,89.87
2017-11-19T12:33:44.614Z,89.88
2017-11-19T12:36:12.923Z,90.00
2017-11-19T12:38:40.823Z,90.84
2017-11-19T12:41:08.733Z,90.30
2017-11-19T12:43:36.655Z,90.62
2017-11-19T12:46:04.563Z,89.45
2017-11-19T12:48:32.499Z,89.51
2017-11-19T12:51:00.429Z,89.55
2017-11-19T12:53:28.351Z,88.98
2017-11-19T12:55:56.684Z,89.45
2017-11-19T12:58:24.611Z,89.06
2017-11-19T13:00:52.905Z,88.81
2017-11-19T13:03:20.849Z,88.83
2017-11-19T13:05:49.160Z,88.09
2017-11-19T13:08:17.091Z,88.12
2017-11-19T13:10:45.416Z,87.51
2017-11-19T13:13:13.337Z,86.58
2017-11-19T13:15:41.649Z,86.66
2017-11-19T13:18:09.561Z,85.67
2017-11-19T13:20:37.488Z,85.46
2017-11-19T13:23:05.393Z,84.87
2017-11-19T13:25:33.382Z,84.57
2017-11-19T13:28:01.684Z,84.87
2017-11-19T13:30:29.595Z,85.38
2017-11-19T13:32:57.504Z,85.31
2017-11-19T13:35:25.816Z,85.83
2017-11-19T13:37:53.721Z,86.02
2017-11-19T13:40:22.401Z,86.09
2017-11-19T13:42:50.297Z,86.06
2017-11-19T13:45:18.610Z,86.60
2017-11-19T13:47:46.513Z,86.44
2017-11-19T13:50:14.456Z,86.42
2017-11-19T13:52:42.386Z,86.70
2017-11-19T13:55:11.721Z,86.43
2017-11-19T13:57:39.657Z,86.04
2017-11-19T14:00:07.970Z,86.89
2017-11-19T14:02:35.895Z,88.75
2017-11-19T14:05:04.251Z,89.68
2017-11-19T14:07:32.213Z,89.95
2017-11-19T14:10:00.148Z,90.37
2017-11-19T14:12:28.067Z,90.01
2017-11-19T14:14:55.985Z,89.30
2017-11-19T14:17:23.927Z,89.89
2017-11-19T14:19:51.866Z,89.56
2017-11-19T14:22:19.787Z,89.47
2017-11-19T14:24:47.698Z,89.31
2017-11-19T14:27:15.610Z,89.22
2017-11-19T14:29:43.633Z,88.67
2017-11-19T14:32:11.561Z,87.94
2017-11-19T14:34:39.468Z,87.28
2017-11-19T14:37:07.434Z,86.92
2017-11-19T14:39:35.416Z,86.76
2017-11-19T14:42:03.348Z,86.67
2017-11-19T14:44:31.258Z,86.98
2017-11-19T14:46:59.174Z,87.22
2017-11-19T14:49:27.077Z,87.61
2017-11-19T14:51:55.003Z,88.08
2017-11-19T14:54:22.928Z,88.25
2017-11-19T14:56:50.858Z,88.27
2017-11-19T14:59:18.783Z,88.51
2017-11-19T15:01:47.118Z,88.61
2017-11-19T15:04:15.033Z,88.59
2017-11-19T15:06:43.341Z,88.54
2017-11-19T15:09:11.259Z,88.41
2017-11-19T15:11:39.623Z,88.37
2017-11-19T15:14:07.537Z,88.31
2017-11-19T15:16:35.535Z,88.59
2017-11-19T15:19:03.485Z,88.58
2017-11-19T15:21:31.407Z,88.05
2017-11-19T15:23:59.349Z,87.41
2017-11-19T15:26:28.271Z,86.70
2017-11-19T15:28:56.598Z,86.41
2017-11-19T15:31:24.513Z,86.02
2017-11-19T15:33:52.431Z,86.18
2017-11-19T15:36:20.450Z,86.87
2017-11-19T15:38:48.450Z,87.04
2017-11-19T15:41:16.586Z,87.77
2017-11-19T15:43:44.578Z,88.11
2017-11-19T15:46:12.908Z,88.49
2017-11-19T15:48:41.870Z,89.21
2017-11-19T15:51:09.810Z,89.68
2017-11-19T15:53:38.141Z,90.16
2017-11-19T15:56:06.043Z,89.90
2017-11-19T15:58:33.966Z,89.94
2017-11-19T16:01:01.877Z,89.89
2017-11-19T16:03:29.828Z,89.98
2017-11-19T16:05:57.754Z,90.27
2017-11-19T16:08:25.681Z,90.38
2017-11-19T16:10:54.470Z,90.37
2017-11-19T16:13:22.405Z,92.03
2017-11-19T16:15:50.338Z,92.54
2017-11-19T16:18:18.275Z,93.69
2017-11-19T16:20:46.191Z,92.39
2017-11-19T16:23:14.096Z,93.13
2017-11-19T16:25:42.031Z,93.58
2017-11-19T16:28:09.932Z,94.34
2017-11-19T16:30:37.888Z,94.61
2017-11-19T16:33:05.800Z,94.56
2017-11-19T16:35:34.107Z,93.86
2017-11-19T16:38:02.016Z,94.16
2017-11-19T16:40:29.929Z,94.47
2017-11-19T16:42:57.854Z,93.33
2017-11-19T16:45:25.776Z,93.22
2017-11-19T16:47:53.702Z,93.70
2017-11-19T16:50:21.619Z,94.87
2017-11-19T16:52:49.527Z,94.78
2017-11-19T16:55:17.471Z,94.25
2017-11-19T16:57:45.467Z,95.46
2017-11-19T17:00:13.397Z,95.96
2017-11-19T17:02:41.356Z,96.54
2017-11-19T17:05:09.266Z,95.25
2017-11-19T17:07:37.175Z,93.90
2017-11-19T17:10:05.081Z,92.61
2017-11-19T17:12:32.989Z,92.46
2017-11-19T17:15:01.290Z,91.82
2017-11-19T17:17:29.220Z,92.08
2017-11-19T17:19:57.134Z,91.17
2017-11-19T17:22:25.055Z,91.41
2017-11-19T17:24:52.973Z,91.64
2017-11-19T17:27:20.877Z,91.11
2017-11-19T17:29:48.802Z,90.86
2017-11-19T17:32:16.723Z,91.38
2017-11-19T17:34:44.638Z,91.53
2017-11-19T17:37:12.582Z,91.64
2017-11-19T17:39:40.899Z,91.72
2017-11-19T17:42:08.818Z,91.91
2017-11-19T17:44:36.721Z,91.83
2017-11-19T17:47:04.631Z,91.89
2017-11-19T17:49:32.542Z,91.72
2017-11-19T17:52:00.465Z,92.03
2017-11-19T17:54:28.387Z,92.31
2017-11-19T17:56:56.297Z,92.40
2017-11-19T17:59:24.223Z,92.29
2017-11-19T18:01:52.138Z,93.11
2017-11-19T18:04:20.064Z,93.46
2017-11-19T18:06:47.977Z,93.96
2017-11-19T18:09:15.922Z,93.83
2017-11-19T18:11:43.873Z,93.46
2017-11-19T18:14:11.785Z,93.34
2017-11-19T18:16:39.711Z,92.85
2017-11-19T18:19:07.634Z,92.60
2017-11-19T18:21:35.969Z,92.63
2017-11-19T18:24:03.881Z,92.81
2017-11-19T18:26:31.841Z,92.51
2017-11-19T18:29:00.295Z,92.54
2017-11-19T18:31:28.551Z,92.09
2017-11-19T18:33:56.491Z,91.63
2017-11-19T18:36:24.797Z,91.89
2017-11-19T18:38:52.721Z,92.08
2017-11-19T18:41:20.642Z,91.34
2017-11-19T18:43:48.646Z,90.66
2017-11-19T18:46:16.644Z,90.94
2017-11-19T18:48:44.959Z,90.56
2017-11-19T18:51:12.947Z,90.26
2017-11-19T18:53:40.885Z,89.80
2017-11-19T18:56:08.825Z,89.75
2017-11-19T18:58:37.180Z,89.30
2017-11-19T19:01:05.142Z,88.75
2017-11-19T19:03:33.097Z,88.02
2017-11-19T19:06:01.018Z,88.15
2017-11-19T19:08:28.949Z,88.44
2017-11-19T19:10:56.926Z,88.08
2017-11-19T19:13:24.867Z,87.77
2017-11-19T19:15:52.794Z,87.63
2017-11-19T19:18:21.111Z,87.53
2017-11-19T19:20:49.052Z,87.67
2017-11-19T19:23:17.000Z,87.85
2017-11-19T19:25:44.923Z,87.64
2017-11-19T19:28:12.847Z,87.40
2017-11-19T19:30:40.785Z,87.52
2017-11-19T19:33:09.097Z,87.45
2017-11-19T19:35:37.031Z,87.71
2017-11-19T19:38:06.374Z,87.44
2017-11-19T19:40:34.293Z,87.93
2017-11-19T19:43:02.266Z,87.96
2017-11-19T19:45:30.199Z,87.94
2017-11-19T19:47:58.150Z,88.31
2017-11-19T19:50:26.076Z,87.90
2017-11-19T19:52:54.037Z,87.80
2017-11-19T19:55:21.982Z,87.86
2017-11-19T19:57:49.957Z,88.13
2017-11-19T20:00:17.877Z,88.37
2017-11-19T20:02:45.808Z,88.67
2017-11-19T20:05:13.801Z,88.49
2017-11-19T20:07:42.125Z,88.46
2017-11-19T20:10:10.095Z,87.78
2017-11-19T20:12:38.023Z,87.26
2017-11-19T20:15:06.345Z,87.07
2017-11-19T20:17:34.261Z,86.77
2017-11-19T20:20:02.589Z,86.20
2017-11-19T20:22:30.516Z,85.10
2017-11-19T20:24:58.434Z,85.40
2017-11-19T20:27:26.845Z,84.74
2017-11-19T20:29:54.765Z,84.48
2017-11-19T20:32:22.831Z,84.17
2017-11-19T20:34:50.740Z,83.83
2017-11-19T20:37:18.672Z,84.42
2017-11-19T20:39:46.591Z,83.87
2017-11-19T20:42:14.956Z,84.27
2017-11-19T20:44:42.861Z,83.74
2017-11-19T20:47:10.774Z,83.71
2017-11-19T20:49:38.718Z,82.62
2017-11-19T20:52:06.625Z,83.17
2017-11-19T20:54:34.574Z,82.70
2017-11-19T20:57:02.520Z,83.13
2017-11-19T20:59:30.494Z,82.95
2017-11-19T21:01:58.421Z,82.68
2017-11-19T21:04:26.739Z,82.01
2017-11-19T21:06:54.675Z,82.13
2017-11-19T21:09:22.981Z,81.92
2017-11-19T21:11:50.910Z,81.85
2017-11-19T21:14:19.234Z,81.48
2017-11-19T21:16:47.155Z,81.08
2017-11-19T21:19:15.486Z,80.13
2017-11-19T21:21:43.423Z,80.16
2017-11-19T21:24:11.341Z,80.20
2017-11-19T21:26:39.250Z,80.35
2017-11-19T21:29:07.605Z,80.37
2017-11-19T21:31:35.535Z,79.76
2017-11-19T21:34:03.481Z,79.79
2017-11-19T21:36:31.409Z,79.39
2017-11-19T21:38:59.331Z,79.55
2017-11-19T21:41:27.259Z,79.81
2017-11-19T21:43:55.594Z,79.81
2017-11-19T21:46:23.517Z,79.77
2017-11-19T21:48:51.441Z,78.39
2017-11-19T21:51:19.364Z,78.16
2017-11-19T21:53:47.293Z,79.13
2017-11-19T21:56:15.221Z,79.52
2017-11-19T21:58:43.149Z,79.67
2017-11-19T22:01:11.073Z,80.61
2017-11-19T22:03:39.022Z,80.92
2017-11-19T22:06:06.933Z,81.08
2017-11-19T22:08:34.859Z,81.94
2017-11-19T22:11:02.770Z,81.63
2017-11-19T22:13:31.082Z,81.40
2017-11-19T22:15:59.014Z,80.67
2017-11-19T22:18:26.927Z,80.94
2017-11-19T22:20:54.840Z,80.60
2017-11-19T22:23:22.800Z,80.34
2017-11-19T22:25:50.725Z,80.75
2017-11-19T22:28:18.625Z,81.09
2017-11-19T22:30:46.554Z,81.21
2017-11-19T22:33:14.551Z,81.60
2017-11-19T22:35:42.484Z,81.66
2017-11-19T22:38:10.434Z,81.66
2017-11-19T22:40:38.341Z,81.70
2017-11-19T22:43:06.264Z,81.80
2017-11-19T22:45:34.195Z,81.98
2017-11-19T22:48:02.106Z,82.30
2017-11-19T22:50:30.036Z,81.84
2017-11-19T22:52:57.977Z,82.08
2017-11-19T22:55:25.912Z,82.00
2017-11-19T22:57:53.841Z,81.73
2017-11-19T23:00:21.758Z,82.26
2017-11-19T23:02:50.069Z,82.05
2017-11-19T23:05:17.996Z,82.06
2017-11-19T23:07:46.331Z,82.18
2017-11-19T23:10:14.251Z,82.27
2017-11-19T23:12:42.565Z,82.26
2017-11-19T23:15:10.477Z,82.07
2017-11-19T23:17:38.418Z,81.83
2017-11-19T23:20:06.329Z,82.09
2017-11-19T23:22:34.660Z,82.42
2017-11-19T23:25:02.589Z,82.07
2017-11-19T23:27:30.497Z,82.27
2017-11-19T23:29:58.428Z,82.35
2017-11-19T23:32:26.353Z,82.71
2017-11-19T23:34:54.269Z,82.70
2017-11-19T23:37:22.186Z,82.71
2017-11-19T23:39:50.102Z,82.92
2017-11-19T23:42:18.020Z,82.66
2017-11-19T23:44:45.996Z,83.44
2017-11-19T23:47:13.921Z,83.02
2017-11-19T23:49:41.825Z,83.25
2017-11-19T23:52:09.753Z,83.29
2017-11-19T23:54:37.670Z,83.84
2017-11-19T23:57:05.620Z,84.06
2017-11-19T23:59:33.542Z,84.23
